PHENX84 YHOT-YITT
Flight info
| Callsign | PHENX84 |
|---|---|
| Flight time | 0h 34m |
| Altitude | 6000 |
| Route | YBRA |
| Aircraft | C172/L-SFG/C |
Departure
| Time | 2026-04-13 13:23 |
|---|---|
| Airport | Mount Hotham Airport (YHOT) |
Arrival
| Time | 2026-04-13 13:58 |
|---|---|
| Airport | Mitta Mitta Airport (YITT) |
| Time | Latitude | Longitude | Altitude | Speed | Heading |
|---|---|---|---|---|---|
| 2026-04-13 13:19 | -37.05151 | 147.33909 | 4255 ft | 0 kts | 182° |
| 2026-04-13 13:20 | -37.05161 | 147.33915 | 4255 ft | 6 kts | 124° |
| 2026-04-13 13:20 | -37.05151 | 147.33938 | 4256 ft | 0 kts | 26° |
| 2026-04-13 13:20 | -37.05149 | 147.33938 | 4256 ft | 2 kts | 25° |
| 2026-04-13 13:21 | -37.05113 | 147.33966 | 4258 ft | 7 kts | 33° |
| 2026-04-13 13:21 | -37.05080 | 147.33992 | 4258 ft | 5 kts | 27° |
| 2026-04-13 13:21 | -37.05065 | 147.33985 | 4259 ft | 2 kts | 298° |
| 2026-04-13 13:21 | -37.04972 | 147.33808 | 4267 ft | 45 kts | 303° |
| 2026-04-13 13:22 | -37.04744 | 147.33365 | 4323 ft | 68 kts | 300° |
| 2026-04-13 13:22 | -37.04495 | 147.32868 | 4472 ft | 69 kts | 297° |
| 2026-04-13 13:22 | -37.04156 | 147.32294 | 4512 ft | 88 kts | 308° |
| 2026-04-13 13:22 | -37.03603 | 147.32028 | 4633 ft | 98 kts | 353° |
| 2026-04-13 13:23 | -37.03027 | 147.32403 | 4846 ft | 97 kts | 65° |
| 2026-04-13 13:23 | -37.02850 | 147.33185 | 4976 ft | 106 kts | 75° |
| 2026-04-13 13:23 | -37.02635 | 147.34052 | 5224 ft | 98 kts | 72° |
| 2026-04-13 13:23 | -37.02418 | 147.34853 | 5412 ft | 98 kts | 71° |
| 2026-04-13 13:24 | -37.02205 | 147.35665 | 5620 ft | 98 kts | 72° |
| 2026-04-13 13:24 | -37.01974 | 147.36497 | 5726 ft | 102 kts | 73° |
| 2026-04-13 13:24 | -37.01752 | 147.37328 | 5701 ft | 101 kts | 74° |
| 2026-04-13 13:24 | -37.01548 | 147.38164 | 5628 ft | 99 kts | 76° |
| 2026-04-13 13:25 | -37.01346 | 147.38985 | 5470 ft | 93 kts | 75° |
| 2026-04-13 13:25 | -37.01156 | 147.39723 | 5298 ft | 93 kts | 74° |
| 2026-04-13 13:25 | -37.00643 | 147.41416 | 4773 ft | 123 kts | 75° |
| 2026-04-13 13:26 | -37.00353 | 147.42368 | 4517 ft | 129 kts | 67° |
| 2026-04-13 13:26 | -37.00017 | 147.43404 | 4409 ft | 113 kts | 69° |
| 2026-04-13 13:26 | -36.99708 | 147.44331 | 4016 ft | 131 kts | 67° |
| 2026-04-13 13:26 | -36.99381 | 147.45396 | 3732 ft | 122 kts | 72° |
| 2026-04-13 13:27 | -36.99221 | 147.46381 | 3620 ft | 112 kts | 82° |
| 2026-04-13 13:27 | -36.99157 | 147.47331 | 3442 ft | 110 kts | 88° |
| 2026-04-13 13:27 | -36.99127 | 147.48285 | 3294 ft | 108 kts | 86° |
| 2026-04-13 13:27 | -36.99082 | 147.49211 | 3135 ft | 107 kts | 89° |
| 2026-04-13 13:28 | -36.99105 | 147.50130 | 3170 ft | 102 kts | 89° |
| 2026-04-13 13:28 | -36.99018 | 147.51025 | 3097 ft | 108 kts | 79° |
| 2026-04-13 13:28 | -36.98960 | 147.52023 | 2886 ft | 116 kts | 89° |
| 2026-04-13 13:28 | -36.98958 | 147.53009 | 2685 ft | 105 kts | 90° |
| 2026-04-13 13:29 | -36.98975 | 147.53858 | 2681 ft | 95 kts | 94° |
| 2026-04-13 13:29 | -36.99039 | 147.54714 | 2649 ft | 98 kts | 90° |
| 2026-04-13 13:29 | -36.98917 | 147.55555 | 2608 ft | 105 kts | 69° |
| 2026-04-13 13:29 | -36.98592 | 147.56374 | 2815 ft | 101 kts | 59° |
| 2026-04-13 13:30 | -36.98260 | 147.57130 | 2945 ft | 101 kts | 59° |
| 2026-04-13 13:30 | -36.97919 | 147.57922 | 3005 ft | 104 kts | 60° |
| 2026-04-13 13:30 | -36.97599 | 147.58720 | 3021 ft | 105 kts | 64° |
| 2026-04-13 13:30 | -36.97294 | 147.59562 | 2983 ft | 107 kts | 64° |
| 2026-04-13 13:31 | -36.96966 | 147.60373 | 3005 ft | 105 kts | 63° |
| 2026-04-13 13:31 | -36.96702 | 147.61191 | 3064 ft | 100 kts | 76° |
| 2026-04-13 13:31 | -36.96555 | 147.62051 | 3135 ft | 101 kts | 78° |
| 2026-04-13 13:31 | -36.96432 | 147.62912 | 3222 ft | 102 kts | 82° |
| 2026-04-13 13:32 | -36.96350 | 147.63792 | 3335 ft | 101 kts | 80° |
| 2026-04-13 13:32 | -36.96218 | 147.64659 | 3428 ft | 101 kts | 75° |
| 2026-04-13 13:32 | -36.96041 | 147.65520 | 3513 ft | 103 kts | 67° |
| 2026-04-13 13:32 | -36.95780 | 147.66405 | 3422 ft | 114 kts | 68° |
| 2026-04-13 13:33 | -36.95499 | 147.67271 | 3357 ft | 104 kts | 65° |
| 2026-04-13 13:33 | -36.95196 | 147.68093 | 3156 ft | 106 kts | 71° |
| 2026-04-13 13:33 | -36.95236 | 147.69036 | 2909 ft | 114 kts | 111° |
| 2026-04-13 13:33 | -36.95698 | 147.69796 | 2824 ft | 108 kts | 140° |
| 2026-04-13 13:34 | -36.96318 | 147.70277 | 2784 ft | 96 kts | 150° |
| 2026-04-13 13:34 | -36.96890 | 147.70726 | 2669 ft | 93 kts | 145° |
| 2026-04-13 13:34 | -36.97407 | 147.70966 | 2676 ft | 86 kts | 218° |
| 2026-04-13 13:34 | -36.97300 | 147.70365 | 2476 ft | 90 kts | 340° |
| 2026-04-13 13:35 | -36.96807 | 147.70019 | 2349 ft | 77 kts | 328° |
| 2026-04-13 13:35 | -36.96363 | 147.69656 | 2354 ft | 81 kts | 327° |
| 2026-04-13 13:35 | -36.95851 | 147.69213 | 2428 ft | 98 kts | 326° |
| 2026-04-13 13:35 | -36.95299 | 147.68728 | 2613 ft | 99 kts | 341° |
| 2026-04-13 13:36 | -36.94618 | 147.68746 | 2777 ft | 101 kts | 11° |
| 2026-04-13 13:36 | -36.93950 | 147.68871 | 3003 ft | 99 kts | 10° |
| 2026-04-13 13:36 | -36.93290 | 147.69025 | 3259 ft | 91 kts | 2° |
| 2026-04-13 13:36 | -36.92632 | 147.69036 | 3175 ft | 100 kts | 18° |
| 2026-04-13 13:37 | -36.91943 | 147.69304 | 3080 ft | 107 kts | 15° |
| 2026-04-13 13:37 | -36.91212 | 147.69556 | 3028 ft | 109 kts | 15° |
| 2026-04-13 13:37 | -36.90464 | 147.69792 | 3024 ft | 112 kts | 14° |
| 2026-04-13 13:37 | -36.89707 | 147.70023 | 3023 ft | 112 kts | 12° |
| 2026-04-13 13:38 | -36.88943 | 147.70213 | 3024 ft | 112 kts | 9° |
| 2026-04-13 13:38 | -36.88185 | 147.70324 | 3013 ft | 107 kts | 6° |
| 2026-04-13 13:38 | -36.87450 | 147.70409 | 3011 ft | 105 kts | 4° |
| 2026-04-13 13:38 | -36.86731 | 147.70451 | 3009 ft | 102 kts | 2° |
| 2026-04-13 13:39 | -36.86063 | 147.70466 | 3007 ft | 90 kts | 1° |
| 2026-04-13 13:39 | -36.85468 | 147.70475 | 3007 ft | 81 kts | 0° |
| 2026-04-13 13:39 | -36.84909 | 147.70484 | 3017 ft | 80 kts | 0° |
| 2026-04-13 13:39 | -36.84350 | 147.70495 | 3014 ft | 80 kts | 1° |
| 2026-04-13 13:40 | -36.83789 | 147.70473 | 3017 ft | 82 kts | 358° |
| 2026-04-13 13:40 | -36.83198 | 147.70417 | 3030 ft | 90 kts | 356° |
| 2026-04-13 13:40 | -36.82544 | 147.70353 | 3031 ft | 97 kts | 356° |
| 2026-04-13 13:40 | -36.81852 | 147.70284 | 3023 ft | 102 kts | 356° |
| 2026-04-13 13:41 | -36.81163 | 147.70221 | 3024 ft | 102 kts | 356° |
| 2026-04-13 13:41 | -36.80445 | 147.70147 | 3027 ft | 104 kts | 356° |
| 2026-04-13 13:41 | -36.79709 | 147.70074 | 3026 ft | 107 kts | 356° |
| 2026-04-13 13:41 | -36.78959 | 147.69997 | 3022 ft | 110 kts | 356° |
| 2026-04-13 13:42 | -36.78193 | 147.69917 | 3026 ft | 111 kts | 356° |
| 2026-04-13 13:42 | -36.77476 | 147.69592 | 3017 ft | 111 kts | 333° |
| 2026-04-13 13:42 | -36.76862 | 147.69024 | 3015 ft | 110 kts | 318° |
| 2026-04-13 13:42 | -36.76306 | 147.68299 | 3028 ft | 120 kts | 313° |
| 2026-04-13 13:43 | -36.75728 | 147.67540 | 3023 ft | 122 kts | 319° |
| 2026-04-13 13:43 | -36.75123 | 147.66822 | 3103 ft | 116 kts | 318° |
| 2026-04-13 13:43 | -36.74559 | 147.66148 | 3274 ft | 112 kts | 317° |
| 2026-04-13 13:43 | -36.73989 | 147.65478 | 3418 ft | 113 kts | 317° |
| 2026-04-13 13:44 | -36.73416 | 147.64804 | 3526 ft | 119 kts | 318° |
| 2026-04-13 13:44 | -36.72796 | 147.64105 | 3525 ft | 122 kts | 320° |
| 2026-04-13 13:44 | -36.72153 | 147.63415 | 3528 ft | 123 kts | 320° |
| 2026-04-13 13:44 | -36.71500 | 147.62719 | 3526 ft | 124 kts | 320° |
| 2026-04-13 13:45 | -36.70828 | 147.62026 | 3526 ft | 123 kts | 321° |
| 2026-04-13 13:45 | -36.70390 | 147.61575 | 3527 ft | 124 kts | 320° |
| 2026-04-13 13:45 | -36.69731 | 147.60891 | 3526 ft | 123 kts | 320° |
| 2026-04-13 13:45 | -36.69070 | 147.60208 | 3527 ft | 124 kts | 321° |
| 2026-04-13 13:46 | -36.68423 | 147.59542 | 3651 ft | 116 kts | 319° |
| 2026-04-13 13:46 | -36.67844 | 147.58861 | 3722 ft | 115 kts | 317° |
| 2026-04-13 13:46 | -36.67261 | 147.58178 | 3761 ft | 115 kts | 317° |
| 2026-04-13 13:46 | -36.66679 | 147.57491 | 3829 ft | 115 kts | 316° |
| 2026-04-13 13:47 | -36.66094 | 147.56805 | 3872 ft | 116 kts | 316° |
| 2026-04-13 13:47 | -36.65504 | 147.56125 | 3918 ft | 116 kts | 316° |
| 2026-04-13 13:47 | -36.64917 | 147.55442 | 3997 ft | 112 kts | 316° |
| 2026-04-13 13:47 | -36.64364 | 147.54807 | 4175 ft | 107 kts | 317° |
| 2026-04-13 13:48 | -36.63810 | 147.54181 | 4258 ft | 108 kts | 316° |
| 2026-04-13 13:48 | -36.63250 | 147.53555 | 4350 ft | 108 kts | 316° |
| 2026-04-13 13:48 | -36.62688 | 147.52934 | 4448 ft | 108 kts | 316° |
| 2026-04-13 13:48 | -36.62121 | 147.52312 | 4545 ft | 109 kts | 317° |
| 2026-04-13 13:49 | -36.61552 | 147.51690 | 4646 ft | 109 kts | 316° |
| 2026-04-13 13:49 | -36.60977 | 147.51069 | 4742 ft | 110 kts | 317° |
| 2026-04-13 13:49 | -36.60399 | 147.50446 | 4827 ft | 110 kts | 316° |
| 2026-04-13 13:49 | -36.59838 | 147.49803 | 4919 ft | 109 kts | 310° |
| 2026-04-13 13:50 | -36.59343 | 147.49081 | 4942 ft | 109 kts | 306° |
| 2026-04-13 13:50 | -36.58888 | 147.48327 | 4918 ft | 108 kts | 303° |
| 2026-04-13 13:50 | -36.58462 | 147.47555 | 4815 ft | 108 kts | 301° |
| 2026-04-13 13:50 | -36.58063 | 147.46761 | 4683 ft | 108 kts | 299° |
| 2026-04-13 13:51 | -36.57682 | 147.45956 | 4600 ft | 108 kts | 299° |
| 2026-04-13 13:51 | -36.57303 | 147.45152 | 4513 ft | 108 kts | 298° |
| 2026-04-13 13:51 | -36.56921 | 147.44352 | 4410 ft | 107 kts | 302° |
| 2026-04-13 13:51 | -36.56485 | 147.43577 | 4186 ft | 116 kts | 304° |
| 2026-04-13 13:52 | -36.56020 | 147.42732 | 3932 ft | 118 kts | 304° |
| 2026-04-13 13:52 | -36.55559 | 147.41890 | 3773 ft | 117 kts | 304° |
| 2026-04-13 13:52 | -36.55086 | 147.41068 | 3471 ft | 119 kts | 304° |
| 2026-04-13 13:52 | -36.54627 | 147.40221 | 3204 ft | 117 kts | 303° |
| 2026-04-13 13:53 | -36.54150 | 147.39391 | 2893 ft | 119 kts | 310° |
| 2026-04-13 13:53 | -36.53598 | 147.38632 | 2643 ft | 116 kts | 314° |
| 2026-04-13 13:53 | -36.53037 | 147.37891 | 2274 ft | 118 kts | 313° |
| 2026-04-13 13:53 | -36.52470 | 147.37213 | 1869 ft | 111 kts | 317° |
| 2026-04-13 13:54 | -36.51966 | 147.36597 | 1502 ft | 94 kts | 337° |
| 2026-04-13 13:54 | -36.51479 | 147.36024 | 1016 ft | 99 kts | 314° |
| 2026-04-13 13:54 | -36.50960 | 147.35584 | 988 ft | 87 kts | 344° |
| 2026-04-13 13:54 | -36.50305 | 147.35521 | 1015 ft | 106 kts | 1° |
| 2026-04-13 13:55 | -36.49557 | 147.35499 | 1224 ft | 106 kts | 358° |
| 2026-04-13 13:55 | -36.48814 | 147.35408 | 1425 ft | 108 kts | 352° |
| 2026-04-13 13:55 | -36.48084 | 147.35264 | 1639 ft | 105 kts | 355° |
| 2026-04-13 13:55 | -36.47403 | 147.35524 | 1688 ft | 107 kts | 26° |
| 2026-04-13 13:56 | -36.46782 | 147.35287 | 1603 ft | 107 kts | 284° |
| 2026-04-13 13:56 | -36.47241 | 147.34672 | 1466 ft | 115 kts | 184° |
| 2026-04-13 13:56 | -36.47985 | 147.34819 | 1589 ft | 101 kts | 167° |
| 2026-04-13 13:56 | -36.48657 | 147.34923 | 1642 ft | 93 kts | 175° |
| 2026-04-13 13:57 | -36.49343 | 147.35038 | 1584 ft | 99 kts | 173° |
| 2026-04-13 13:57 | -36.49948 | 147.35121 | 1433 ft | 89 kts | 173° |
| 2026-04-13 13:57 | -36.50559 | 147.35311 | 1080 ft | 88 kts | 158° |
| 2026-04-13 13:57 | -36.51068 | 147.35654 | 879 ft | 78 kts | 147° |
| 2026-04-13 13:58 | -36.51440 | 147.35942 | 856 ft | 38 kts | 147° |
| 2026-04-13 13:58 | -36.51561 | 147.36036 | 856 ft | 9 kts | 146° |
| 2026-04-13 13:58 | -36.51589 | 147.36070 | 852 ft | 0 kts | 144° |
| 2026-04-13 14:05 | -36.51593 | 147.36073 | 849 ft | 0 kts | 150° |